Change the Weather History Date:

Wednesday, October 3, 2012

  Actual Average (KFFM) Record (KFFM)
Temperature  
Mean Temperature 56 °F -  
Max Temperature 71 °F 63 °F 84 °F (2011)
Min Temperature 41 °F 39 °F 21 °F (1993)
Degree Days  
Heating Degree Days 9    
Growing Degree Days 6 (Base 50)    
Moisture  
Dew Point 33 °F    
Average Humidity 47    
Maximum Humidity 76    
Minimum Humidity 27    
Precipitation  
Precipitation 0.03 in - - ()
Sea Level Pressure  
Sea Level Pressure 29.83 in    
Wind  
Wind Speed 9 mph (NNE)    
Max Wind Speed 29 mph    
Max Gust Speed 38 mph    
Visibility 10 miles    
Events      
Averages and records for this station are not official NWS values.
T = Trace of Precipitation, MM = Missing Value Source: NWS Daily Summary

Daily Weather History Graph

Daily Weather History Graph

Search for Another Location

Airport or City:

Trip Planner

Search our weather history database for the weather conditions in past years. The results will help you decide how hot, cold, wet, or windy it might be!

Date:

Astronomy

Oct. 03, 2012 Rise Set
Actual Time 7:28 AM CDT 7:01 PM CDT
Civil Twilight 6:58 AM CDT 7:31 PM CDT
Nautical Twilight 6:23 AM CDT 8:06 PM CDT
Astronomical Twilight 5:48 AM CDT 8:41 PM CDT
Moon 8:40 PM CDT (10/3) 11:06 AM CDT (10/3)
Length of Visible Light 12h 33m
Length of Day
11h 33m
Waning Gibbous, 88% of the Moon is Illuminated
Oct 3
Waning Gibbous
Oct 8
Last Quarter
Oct 15
New
Oct 21
First Quarter
Oct 29
Full

Hourly Weather History & Observations

Time (CDT) Temp. Windchill Dew Point Humidity Pressure Visibility Wind Dir Wind Speed Gust Speed Precip Events Conditions
12:15 AM 48.2 °F - 26.6 °F 43% 29.81 in 10.0 mi SE 4.6 mph - N/A   Clear
12:35 AM 48.2 °F - 24.8 °F 40% 29.80 in 10.0 mi SE 8.1 mph - N/A   Clear
12:55 AM 46.4 °F 44.3 °F 26.6 °F 46% 29.81 in 10.0 mi SE 4.6 mph - N/A   Clear
1:15 AM 46.4 °F - 26.6 °F 46% 29.81 in 10.0 mi Calm Calm - N/A   Clear
1:35 AM 46.4 °F - 26.6 °F 46% 29.81 in 10.0 mi Calm Calm - N/A   Clear
1:55 AM 46.4 °F 45.2 °F 26.6 °F 46% 29.81 in 10.0 mi SE 3.5 mph - N/A   Clear
2:15 AM 42.8 °F - 26.6 °F 53% 29.81 in 10.0 mi Calm Calm - N/A   Clear
2:35 AM 44.6 °F 42.2 °F 26.6 °F 49% 29.81 in 10.0 mi SE 4.6 mph - N/A   Clear
2:55 AM 44.6 °F 41.4 °F 24.8 °F 46% 29.81 in 10.0 mi SSE 5.8 mph - N/A   Clear
3:15 AM 44.6 °F 43.1 °F 24.8 °F 46% 29.80 in 10.0 mi SE 3.5 mph - N/A   Clear
3:35 AM 44.6 °F - 26.6 °F 49% 29.81 in 10.0 mi Calm Calm - N/A   Clear
3:55 AM 42.8 °F - 28.4 °F 57% 29.82 in 10.0 mi Calm Calm - N/A   Clear
4:15 AM 42.8 °F - 26.6 °F 53% 29.83 in 10.0 mi Calm Calm - N/A   Clear
4:35 AM 42.8 °F - 28.4 °F 57% 29.84 in 10.0 mi Calm Calm - N/A   Clear
4:55 AM 41.0 °F 39.0 °F 26.6 °F 57% 29.84 in 10.0 mi NE 3.5 mph - N/A   Clear
5:15 AM 42.8 °F 41.1 °F 28.4 °F 57% 29.84 in 10.0 mi NE 3.5 mph - N/A   Clear
5:55 AM 41.0 °F 39.0 °F 30.2 °F 65% 29.86 in 10.0 mi NNE 3.5 mph - N/A   Clear
6:15 AM 42.8 °F 41.1 °F 28.4 °F 57% 29.85 in 10.0 mi East 3.5 mph - N/A   Clear
6:55 AM 44.6 °F 41.4 °F 28.4 °F 53% 29.86 in 10.0 mi NNE 5.8 mph - N/A   Clear
7:15 AM 44.6 °F 41.4 °F 28.4 °F 53% 29.85 in 10.0 mi North 5.8 mph - N/A   Clear
7:35 AM 44.6 °F 41.4 °F 28.4 °F 53% 29.85 in 7.0 mi SE 5.8 mph - N/A   Clear
7:55 AM 46.4 °F 41.9 °F 26.6 °F 46% 29.88 in 7.0 mi NW 9.2 mph - N/A   Clear
8:15 AM 46.4 °F 44.3 °F 28.4 °F 50% 29.87 in 7.0 mi East 4.6 mph - N/A   Clear
8:35 AM 46.4 °F 45.2 °F 28.4 °F 50% 29.88 in 7.0 mi North 3.5 mph - N/A   Clear
8:55 AM 50.0 °F - 28.4 °F 43% 29.88 in 10.0 mi North 6.9 mph - N/A   Clear
9:15 AM - - - N/A% - - North - - N/A   Unknown
9:35 AM - - - N/A% - - North - - N/A   Unknown
9:55 AM 53.6 °F - 32.0 °F 44% 29.88 in 10.0 mi North 8.1 mph - 0.03 in   Clear
10:15 AM 53.6 °F - 33.8 °F 47% 29.88 in 10.0 mi North 13.8 mph - N/A   Clear
10:35 AM 57.2 °F - 35.6 °F 44% 29.87 in 10.0 mi NNE 15.0 mph 18.4 mph N/A   Clear
10:55 AM 59.0 °F - 35.6 °F 42% 29.86 in 10.0 mi NE 12.7 mph 18.4 mph N/A   Clear
11:15 AM 62.6 °F - 35.6 °F 37% 29.85 in 10.0 mi NE 12.7 mph - N/A   Clear
11:35 AM 64.4 °F - 35.6 °F 34% 29.84 in 10.0 mi NE 12.7 mph 17.3 mph N/A   Clear
11:55 AM 68.0 °F - 35.6 °F 30% 29.83 in 10.0 mi NE 11.5 mph 20.7 mph N/A   Clear
12:15 PM 68.0 °F - 35.6 °F 30% 29.83 in 10.0 mi ENE 9.2 mph 18.4 mph N/A   Clear
12:35 PM 71.6 °F - 35.6 °F 27% 29.83 in 10.0 mi East 10.4 mph 18.4 mph N/A   Clear
12:55 PM 71.6 °F - 35.6 °F 27% 29.84 in 10.0 mi NE 6.9 mph - N/A   Clear
1:15 PM 69.8 °F - 35.6 °F 28% 29.84 in 10.0 mi NE 10.4 mph - N/A   Clear
1:35 PM 71.6 °F - 35.6 °F 27% 29.82 in 10.0 mi NE 11.5 mph - N/A   Clear
1:55 PM 71.6 °F - 35.6 °F 27% 29.81 in 10.0 mi NE 13.8 mph - N/A   Clear
2:15 PM 71.6 °F - 35.6 °F 27% 29.81 in 10.0 mi NE 12.7 mph - N/A   Clear
2:35 PM 71.6 °F - 35.6 °F 27% 29.81 in 10.0 mi North 11.5 mph 17.3 mph N/A   Clear
2:55 PM 69.8 °F - 35.6 °F 28% 29.80 in 10.0 mi North 18.4 mph 23.0 mph N/A   Clear
3:15 PM 68.0 °F - 35.6 °F 30% 29.80 in 10.0 mi North 20.7 mph - N/A   Clear
3:35 PM 64.4 °F - 35.6 °F 34% 29.80 in 10.0 mi North 18.4 mph 29.9 mph N/A   Clear
3:55 PM 64.4 °F - 35.6 °F 34% 29.79 in 10.0 mi NNE 19.6 mph 27.6 mph N/A   Clear
4:15 PM 62.6 °F - 35.6 °F 37% 29.80 in 10.0 mi NNE 19.6 mph 26.5 mph N/A   Clear
4:35 PM 60.8 °F - 35.6 °F 39% 29.77 in 10.0 mi NNE 25.3 mph 31.1 mph N/A   Clear
4:55 PM 60.8 °F - 35.6 °F 39% 29.81 in 10.0 mi North 21.9 mph 26.5 mph N/A   Clear
5:15 PM 59.0 °F - 35.6 °F 42% 29.80 in 10.0 mi NNE 24.2 mph 28.8 mph N/A   Clear
5:35 PM 59.0 °F - 35.6 °F 42% 29.80 in 10.0 mi NNE 17.3 mph 26.5 mph N/A   Clear
5:55 PM 57.2 °F - 35.6 °F 44% 29.79 in 10.0 mi NNE 21.9 mph 27.6 mph N/A   Clear
6:15 PM 55.4 °F - 37.4 °F 51% 29.80 in 10.0 mi North 21.9 mph 28.8 mph N/A   Clear
6:35 PM 55.4 °F - 37.4 °F 51% 29.82 in 10.0 mi North 20.7 mph 26.5 mph N/A   Scattered Clouds
6:55 PM 55.4 °F - 37.4 °F 51% 29.83 in 10.0 mi North 25.3 mph 33.4 mph N/A   Mostly Cloudy
7:15 PM 55.4 °F - 37.4 °F 51% 29.84 in 10.0 mi North 24.2 mph 31.1 mph N/A   Overcast
7:35 PM 55.4 °F - 35.6 °F 47% 29.84 in 10.0 mi North 24.2 mph 31.1 mph N/A   Overcast
7:55 PM 55.4 °F - 37.4 °F 51% 29.84 in 10.0 mi North 12.7 mph 35.7 mph N/A   Overcast
8:15 PM 53.6 °F - 37.4 °F 54% 29.84 in 10.0 mi North 21.9 mph 26.5 mph N/A   Overcast
8:35 PM 51.8 °F - 39.2 °F 62% 29.85 in 10.0 mi North 24.2 mph 36.8 mph N/A   Overcast
8:55 PM 51.8 °F - 39.2 °F 62% 29.84 in 10.0 mi North 25.3 mph 32.2 mph N/A   Mostly Cloudy
9:15 PM 51.8 °F - 39.2 °F 62% 29.84 in 10.0 mi North 28.8 mph 34.5 mph N/A   Overcast
9:35 PM 51.8 °F - 39.2 °F 62% 29.82 in 10.0 mi North 21.9 mph 32.2 mph N/A   Scattered Clouds
9:55 PM 50.0 °F - 39.2 °F 66% 29.82 in 10.0 mi North 23.0 mph 33.4 mph N/A   Clear
10:15 PM 50.0 °F - 39.2 °F 66% 29.81 in 10.0 mi North 27.6 mph 34.5 mph N/A   Clear
10:35 PM 50.0 °F - 39.2 °F 66% 29.81 in 10.0 mi North 25.3 mph 32.2 mph N/A   Scattered Clouds
10:55 PM 50.0 °F - 39.2 °F 66% 29.81 in 10.0 mi North 24.2 mph 32.2 mph N/A   Scattered Clouds
11:15 PM 48.2 °F - 39.2 °F 71% 29.80 in 10.0 mi North 26.5 mph 33.4 mph N/A   Mostly Cloudy
11:35 PM 46.4 °F 37.7 °F 39.2 °F 76% 29.80 in 10.0 mi North 26.5 mph 34.5 mph N/A   Overcast
11:55 PM 46.4 °F 38.1 °F 39.2 °F 76% 29.79 in 10.0 mi North 24.2 mph 38.0 mph N/A   Overcast